Time;durP1;ratioP1;P1;durP2;ratioP2;P2;SDS_P1;SDS_P2;PMS_P1;PMS_P2;Temp;Humidity;BMP_temperature;BMP_pressure;BME280_temperature;BME280_humidity;BME280_pressure;Samples;Min_cycle;Max_cycle;Signal;HPM_P1;HPM_P2
2023/07/01 00:01:49;;;;;;;4.20;3.10;;;;;;;;;;5015056;28;20409;-70
2023/07/01 00:04:14;;;;;;;6.80;2.53;;;;;;;;;;5014689;28;20030;-70
2023/07/01 00:06:41;;;;;;;4.25;2.80;;;;;;;;;;5013020;28;20025;-70
2023/07/01 00:09:10;;;;;;;3.53;2.28;;;;;;;;;;5014821;28;20029;-69
2023/07/01 00:11:36;;;;;;;4.38;2.47;;;;;;;;;;5014484;28;20030;-69
2023/07/01 00:14:02;;;;;;;8.13;3.60;;;;;;;;;;5014680;28;20026;-70
2023/07/01 00:16:27;;;;;;;4.78;2.38;;;;;;;;;;5014479;28;20032;-69
2023/07/01 00:18:53;;;;;;;7.28;2.67;;;;;;;;;;5013626;28;20032;-70
2023/07/01 00:21:18;;;;;;;3.22;1.98;;;;;;;;;;5014890;28;20038;-70
2023/07/01 00:23:43;;;;;;;4.07;2.42;;;;;;;;;;5014765;28;20021;-69
2023/07/01 00:26:09;;;;;;;7.13;2.42;;;;;;;;;;5014066;28;20509;-69
2023/07/01 00:28:34;;;;;;;7.10;2.58;;;;;;;;;;5013145;28;20036;-69
2023/07/01 00:30:59;;;;;;;8.20;2.33;;;;;;;;;;5013497;28;20030;-70
2023/07/01 00:33:25;;;;;;;5.13;2.47;;;;;;;;;;5014266;28;20021;-69
2023/07/01 00:35:50;;;;;;;4.88;2.40;;;;;;;;;;4999140;28;20026;-70
2023/07/01 00:38:15;;;;;;;3.50;2.22;;;;;;;;;;5014209;28;20026;-69
2023/07/01 00:40:41;;;;;;;5.85;2.38;;;;;;;;;;5013585;28;20026;-69
2023/07/01 00:43:06;;;;;;;5.90;2.65;;;;;;;;;;5013187;28;20021;-69
2023/07/01 00:45:32;;;;;;;4.97;2.47;;;;;;;;;;5013609;28;20033;-69
2023/07/01 00:47:57;;;;;;;6.40;3.53;;;;;;;;;;5012521;28;20021;-69
2023/07/01 00:50:23;;;;;;;6.80;3.05;;;;;;;;;;5011241;28;20030;-69
2023/07/01 00:52:49;;;;;;;11.82;3.20;;;;;;;;;;5011817;28;20503;-69
2023/07/01 00:55:14;;;;;;;6.80;3.00;;;;;;;;;;5012644;28;20033;-69
2023/07/01 00:57:40;;;;;;;5.65;2.95;;;;;;;;;;5002115;28;20479;-69
2023/07/01 01:00:11;;;;;;;7.30;3.70;;;;;;;;;;5012612;28;20394;-69
2023/07/01 01:02:56;;;;;;;;;;;;;;;;;;5012329;28;20017;-69
2023/07/01 01:05:30;;;;;;;9.98;4.70;;;;;;;;;;5012634;28;19910;-69
2023/07/01 01:08:04;;;;;;;7.88;3.60;;;;;;;;;;5002590;28;20022;-69
2023/07/01 01:10:31;;;;;;;7.40;4.05;;;;;;;;;;5004192;28;20033;-69
2023/07/01 01:12:57;;;;;;;7.43;3.70;;;;;;;;;;5027468;28;20026;-69
2023/07/01 01:15:26;;;;;;;8.15;3.88;;;;;;;;;;5000997;28;20034;-69
2023/07/01 01:17:55;;;;;;;7.07;4.22;;;;;;;;;;5012459;28;20088;-69
2023/07/01 01:20:21;;;;;;;9.10;4.43;;;;;;;;;;5003936;28;20472;-69
2023/07/01 01:23:01;;;;;;;8.07;4.15;;;;;;;;;;5008099;28;20040;-69
2023/07/01 01:25:32;;;;;;;7.25;4.60;;;;;;;;;;4996175;28;20480;-69
2023/07/01 01:27:57;;;;;;;10.55;4.05;;;;;;;;;;4996884;28;20080;-69
2023/07/01 01:30:23;;;;;;;11.68;4.70;;;;;;;;;;5007446;28;20026;-69
2023/07/01 01:32:49;;;;;;;9.35;5.00;;;;;;;;;;4999811;28;20036;-69
2023/07/01 01:35:14;;;;;;;8.45;4.28;;;;;;;;;;5010738;28;20026;-69
2023/07/01 01:37:50;;;;;;;9.82;5.18;;;;;;;;;;5005179;28;20030;-69
2023/07/01 01:40:27;;;;;;;10.18;5.25;;;;;;;;;;5002341;28;20042;-69
2023/07/01 01:42:55;;;;;;;12.10;5.50;;;;;;;;;;5000658;28;20022;-69
2023/07/01 01:45:21;;;;;;;9.23;5.50;;;;;;;;;;5002861;28;20053;-69
2023/07/01 01:47:48;;;;;;;8.77;5.95;;;;;;;;;;5005894;28;20572;-69
2023/07/01 01:50:14;;;;;;;11.27;5.45;;;;;;;;;;5004403;28;20033;-68
2023/07/01 01:52:40;;;;;;;9.90;6.15;;;;;;;;;;5003413;28;20018;-69
2023/07/01 01:55:07;;;;;;;8.25;5.38;;;;;;;;;;5003417;28;20079;-69
2023/07/01 01:57:33;;;;;;;12.43;6.43;;;;;;;;;;5001632;28;20024;-69
2023/07/01 01:59:58;;;;;;;12.32;6.55;;;;;;;;;;5005696;28;20022;-69
2023/07/01 02:02:24;;;;;;;11.73;6.10;;;;;;;;;;5004578;28;20034;-69
2023/07/01 02:04:49;;;;;;;13.57;7.45;;;;;;;;;;5004876;28;20384;-69
2023/07/01 02:07:14;;;;;;;11.70;6.20;;;;;;;;;;5002207;28;20026;-69
2023/07/01 02:09:40;;;;;;;17.02;7.35;;;;;;;;;;5002394;28;20022;-69
2023/07/01 02:12:05;;;;;;;14.10;6.85;;;;;;;;;;5004466;28;20022;-69
2023/07/01 02:14:31;;;;;;;14.43;6.32;;;;;;;;;;5004227;28;20030;-69
2023/07/01 02:16:57;;;;;;;12.77;6.78;;;;;;;;;;5002638;28;20029;-69
2023/07/01 02:19:22;;;;;;;11.88;6.90;;;;;;;;;;5003304;28;20026;-69
2023/07/01 02:21:47;;;;;;;13.95;7.53;;;;;;;;;;5004720;28;20017;-69
2023/07/01 02:24:13;;;;;;;21.58;7.95;;;;;;;;;;5002904;28;20022;-69
2023/07/01 02:26:38;;;;;;;14.73;7.65;;;;;;;;;;5004069;28;20025;-69
2023/07/01 02:29:04;;;;;;;13.23;7.75;;;;;;;;;;5002302;28;20029;-68
2023/07/01 02:31:29;;;;;;;12.50;7.40;;;;;;;;;;5004991;28;20037;-69
2023/07/01 02:34:02;;;;;;;14.77;8.27;;;;;;;;;;5001756;28;20044;-69
2023/07/01 02:36:28;;;;;;;16.00;8.88;;;;;;;;;;4990735;28;20392;-69
2023/07/01 02:38:53;;;;;;;17.40;7.88;;;;;;;;;;5011856;28;20033;-69
2023/07/01 02:41:18;;;;;;;14.63;8.60;;;;;;;;;;5008584;28;20446;-69
2023/07/01 02:43:44;;;;;;;13.82;8.05;;;;;;;;;;5011819;28;20026;-69
2023/07/01 02:46:09;;;;;;;17.80;9.05;;;;;;;;;;5012653;28;20021;-69
2023/07/01 02:48:35;;;;;;;14.57;7.63;;;;;;;;;;5006491;28;20034;-69
2023/07/01 02:51:00;;;;;;;15.05;9.13;;;;;;;;;;5012207;28;20026;-69
2023/07/01 02:53:25;;;;;;;17.23;9.00;;;;;;;;;;5011364;28;20096;-69
2023/07/01 02:55:51;;;;;;;17.45;8.60;;;;;;;;;;5012531;28;20044;-69
2023/07/01 02:58:16;;;;;;;17.05;11.65;;;;;;;;;;5010696;28;20364;-69
2023/07/01 03:00:41;;;;;;;19.40;10.10;;;;;;;;;;5007926;28;20026;-69
2023/07/01 03:03:07;;;;;;;15.02;9.75;;;;;;;;;;5007126;28;20034;-69
2023/07/01 03:05:36;;;;;;;15.20;8.70;;;;;;;;;;5011160;28;20026;-69
2023/07/01 03:08:01;;;;;;;18.02;11.07;;;;;;;;;;5013705;28;20490;-69
2023/07/01 03:10:27;;;;;;;17.23;9.85;;;;;;;;;;5012071;28;20052;-69
2023/07/01 03:12:53;;;;;;;16.38;10.38;;;;;;;;;;5010757;28;20033;-69
2023/07/01 03:15:18;;;;;;;16.95;10.48;;;;;;;;;;5011392;28;20396;-69
2023/07/01 03:17:44;;;;;;;19.70;9.38;;;;;;;;;;5010932;28;20109;-69
2023/07/01 03:20:22;;;;;;;14.27;8.52;;;;;;;;;;5007285;28;20025;-69
2023/07/01 03:22:50;;;;;;;16.00;9.13;;;;;;;;;;5009457;28;20037;-69
2023/07/01 03:25:15;;;;;;;17.15;8.80;;;;;;;;;;5009432;28;20051;-69
2023/07/01 03:27:41;;;;;;;16.98;8.57;;;;;;;;;;5008157;28;20026;-69
2023/07/01 03:30:13;;;;;;;16.30;8.98;;;;;;;;;;5009126;28;20025;-69
2023/07/01 03:32:47;;;;;;;19.23;9.55;;;;;;;;;;5008586;28;20034;-69
2023/07/01 03:35:14;;;;;;;16.55;9.25;;;;;;;;;;5011359;28;20026;-69
2023/07/01 03:37:41;;;;;;;16.52;7.90;;;;;;;;;;5013840;28;20034;-69
2023/07/01 03:40:10;;;;;;;15.07;8.32;;;;;;;;;;5014045;28;20080;-69
2023/07/01 03:42:39;;;;;;;15.25;7.82;;;;;;;;;;5009962;28;20019;-69
2023/07/01 03:45:06;;;;;;;15.05;8.73;;;;;;;;;;5011674;28;20053;-69
2023/07/01 03:47:31;;;;;;;14.13;7.85;;;;;;;;;;5013622;28;20029;-69
2023/07/01 03:49:57;;;;;;;16.92;8.80;;;;;;;;;;5008864;28;20026;-69
2023/07/01 03:52:22;;;;;;;15.55;8.45;;;;;;;;;;5011505;28;20025;-69
2023/07/01 03:54:48;;;;;;;13.30;7.47;;;;;;;;;;5014161;28;20057;-69
2023/07/01 03:57:13;;;;;;;17.67;8.00;;;;;;;;;;5014028;28;20498;-70
2023/07/01 03:59:39;;;;;;;18.15;7.30;;;;;;;;;;5013486;28;20032;-70
2023/07/01 04:02:05;;;;;;;11.90;6.90;;;;;;;;;;5015529;28;20486;-70
2023/07/01 04:04:30;;;;;;;16.90;7.50;;;;;;;;;;5014879;28;20026;-70
2023/07/01 04:06:57;;;;;;;17.60;7.25;;;;;;;;;;5015022;28;20021;-69
2023/07/01 04:09:22;;;;;;;13.13;6.88;;;;;;;;;;5014870;28;20069;-69
2023/07/01 04:11:48;;;;;;;17.35;6.47;;;;;;;;;;5013803;28;20018;-69
2023/07/01 04:14:15;;;;;;;15.10;7.57;;;;;;;;;;5013926;28;20380;-69
2023/07/01 04:16:44;;;;;;;16.60;7.18;;;;;;;;;;5008147;28;20037;-70
2023/07/01 04:19:10;;;;;;;14.75;7.70;;;;;;;;;;5016355;28;20017;-70
2023/07/01 04:21:35;;;;;;;16.70;7.70;;;;;;;;;;5014298;28;20037;-70
2023/07/01 04:24:04;;;;;;;18.95;10.07;;;;;;;;;;5014385;28;20434;-69
2023/07/01 04:26:29;;;;;;;16.70;8.45;;;;;;;;;;5014128;28;20083;-70
2023/07/01 04:28:55;;;;;;;15.52;8.20;;;;;;;;;;5013073;28;20081;-70
2023/07/01 04:31:20;;;;;;;14.20;8.15;;;;;;;;;;5014353;28;20025;-69
2023/07/01 04:33:47;;;;;;;15.48;7.97;;;;;;;;;;5013962;28;20030;-69
2023/07/01 04:36:12;;;;;;;14.80;7.97;;;;;;;;;;5013766;28;20546;-70
2023/07/01 04:38:38;;;;;;;13.05;7.50;;;;;;;;;;5014125;28;20038;-70
2023/07/01 04:41:05;;;;;;;13.85;8.80;;;;;;;;;;5013328;28;20365;-69
2023/07/01 04:43:30;;;;;;;16.70;8.00;;;;;;;;;;5013734;28;20025;-70
2023/07/01 04:45:56;;;;;;;13.40;6.97;;;;;;;;;;5014170;28;20021;-69
2023/07/01 04:48:21;;;;;;;13.18;6.93;;;;;;;;;;5013822;28;20533;-70
2023/07/01 04:50:46;;;;;;;13.35;7.10;;;;;;;;;;5014107;28;20036;-69
2023/07/01 04:53:12;;;;;;;13.60;7.38;;;;;;;;;;5013466;28;20028;-70
2023/07/01 04:55:38;;;;;;;16.25;8.60;;;;;;;;;;5010390;28;20372;-70
2023/07/01 04:58:03;;;;;;;14.93;8.45;;;;;;;;;;5003791;28;20407;-69
2023/07/01 05:00:29;;;;;;;11.68;6.63;;;;;;;;;;5013268;28;20059;-69
2023/07/01 05:02:54;;;;;;;14.48;7.10;;;;;;;;;;5013684;28;20040;-70
2023/07/01 05:05:20;;;;;;;10.38;5.55;;;;;;;;;;5014515;28;20032;-69
2023/07/01 05:07:45;;;;;;;11.43;6.10;;;;;;;;;;5012617;28;20036;-71
2023/07/01 05:10:10;;;;;;;12.68;5.93;;;;;;;;;;5014668;28;20033;-69
2023/07/01 05:12:36;;;;;;;14.70;6.75;;;;;;;;;;5014163;28;20040;-70
2023/07/01 05:15:01;;;;;;;12.00;6.60;;;;;;;;;;5015084;28;20399;-70
2023/07/01 05:17:26;;;;;;;14.00;6.35;;;;;;;;;;5013866;28;20030;-70
2023/07/01 05:19:52;;;;;;;17.73;7.00;;;;;;;;;;5012698;28;20034;-70
2023/07/01 05:22:17;;;;;;;13.20;8.00;;;;;;;;;;5014106;28;20391;-70
2023/07/01 05:24:43;;;;;;;13.77;7.18;;;;;;;;;;5013091;28;20026;-69
2023/07/01 05:27:08;;;;;;;19.42;7.68;;;;;;;;;;5013419;28;20025;-70
2023/07/01 05:29:33;;;;;;;15.38;7.50;;;;;;;;;;5013940;28;20032;-70
2023/07/01 05:31:59;;;;;;;14.70;6.78;;;;;;;;;;5014504;28;20051;-70
2023/07/01 05:34:24;;;;;;;15.70;6.72;;;;;;;;;;5012003;28;20026;-70
2023/07/01 05:36:50;;;;;;;16.20;6.90;;;;;;;;;;5014046;28;20021;-69
2023/07/01 05:39:16;;;;;;;11.30;6.00;;;;;;;;;;5011446;28;20034;-69
2023/07/01 05:41:43;;;;;;;10.38;6.60;;;;;;;;;;5013559;28;20017;-70
2023/07/01 05:44:10;;;;;;;10.90;6.07;;;;;;;;;;5013842;28;20065;-69
2023/07/01 05:46:35;;;;;;;12.75;6.75;;;;;;;;;;5014719;28;20022;-69
2023/07/01 05:49:01;;;;;;;10.55;7.00;;;;;;;;;;5013807;28;20364;-69
2023/07/01 05:51:26;;;;;;;8.73;5.65;;;;;;;;;;5013158;28;20506;-69
2023/07/01 05:53:51;;;;;;;10.27;5.20;;;;;;;;;;5006568;28;20048;-69
2023/07/01 05:56:17;;;;;;;9.52;5.35;;;;;;;;;;5012617;28;20025;-68
2023/07/01 05:58:42;;;;;;;9.25;5.45;;;;;;;;;;5014398;28;20028;-69
2023/07/01 06:01:08;;;;;;;13.80;6.18;;;;;;;;;;5013707;28;20471;-69
2023/07/01 06:03:33;;;;;;;12.32;5.70;;;;;;;;;;5007867;28;20037;-68
2023/07/01 06:05:58;;;;;;;12.50;5.72;;;;;;;;;;5008043;28;20034;-70
2023/07/01 06:08:24;;;;;;;11.45;5.47;;;;;;;;;;5013093;28;20038;-68
2023/07/01 06:10:49;;;;;;;8.18;4.85;;;;;;;;;;5012497;28;20068;-68
2023/07/01 06:13:15;;;;;;;10.93;5.25;;;;;;;;;;5013356;28;20076;-68
2023/07/01 06:15:40;;;;;;;9.55;4.85;;;;;;;;;;5013844;28;20026;-68
2023/07/01 06:18:05;;;;;;;11.52;5.72;;;;;;;;;;5012555;28;20018;-68
2023/07/01 06:20:31;;;;;;;11.15;5.30;;;;;;;;;;5013148;28;20476;-69
2023/07/01 06:22:56;;;;;;;11.23;5.43;;;;;;;;;;5012060;28;20025;-67
2023/07/01 06:25:21;;;;;;;13.15;5.03;;;;;;;;;;5001144;28;20534;-68
2023/07/01 06:27:47;;;;;;;8.40;5.50;;;;;;;;;;5008921;28;20052;-68
2023/07/01 06:30:12;;;;;;;8.45;5.45;;;;;;;;;;5013326;28;20032;-69
2023/07/01 06:32:39;;;;;;;8.20;4.80;;;;;;;;;;5012166;28;20542;-68
2023/07/01 06:35:04;;;;;;;8.10;5.18;;;;;;;;;;5014056;28;20026;-68
2023/07/01 06:37:30;;;;;;;6.90;4.50;;;;;;;;;;5012849;28;20030;-68
2023/07/01 06:39:55;;;;;;;9.45;5.20;;;;;;;;;;5012722;28;20036;-68
2023/07/01 06:42:20;;;;;;;9.65;4.53;;;;;;;;;;5016964;28;20028;-69
2023/07/01 06:44:46;;;;;;;9.73;4.78;;;;;;;;;;5015204;28;20041;-69
2023/07/01 06:47:11;;;;;;;8.75;4.60;;;;;;;;;;5017104;28;20022;-69
2023/07/01 06:49:36;;;;;;;6.70;4.20;;;;;;;;;;5016962;28;20022;-69
2023/07/01 06:52:02;;;;;;;8.40;4.47;;;;;;;;;;5016744;28;20026;-69
2023/07/01 06:54:27;;;;;;;8.13;4.43;;;;;;;;;;5010742;28;20022;-69
2023/07/01 06:56:53;;;;;;;9.93;6.07;;;;;;;;;;5008898;28;20407;-69
2023/07/01 06:59:18;;;;;;;7.18;3.90;;;;;;;;;;5012185;28;20030;-69
2023/07/01 07:01:44;;;;;;;9.25;4.70;;;;;;;;;;5014218;28;20431;-68
2023/07/01 07:04:09;;;;;;;8.50;4.70;;;;;;;;;;5016269;28;20111;-69
2023/07/01 07:06:34;;;;;;;11.88;5.57;;;;;;;;;;5015731;28;20040;-68
2023/07/01 07:09:00;;;;;;;13.45;5.63;;;;;;;;;;5013641;28;20044;-69
2023/07/01 07:11:25;;;;;;;13.13;5.18;;;;;;;;;;5017080;28;20036;-69
2023/07/01 07:13:50;;;;;;;17.92;6.20;;;;;;;;;;5011828;28;20433;-68
2023/07/01 07:16:16;;;;;;;12.05;5.68;;;;;;;;;;5016606;28;20022;-69
2023/07/01 07:18:41;;;;;;;12.32;5.60;;;;;;;;;;5010489;28;20017;-69
2023/07/01 07:21:06;;;;;;;16.20;7.25;;;;;;;;;;5012709;28;20376;-69
2023/07/01 07:23:32;;;;;;;12.90;5.70;;;;;;;;;;5013226;28;20038;-69
2023/07/01 07:25:57;;;;;;;11.05;6.03;;;;;;;;;;5012505;28;20053;-69
2023/07/01 07:28:22;;;;;;;13.57;5.80;;;;;;;;;;5010050;28;20068;-69
2023/07/01 07:30:48;;;;;;;16.52;5.97;;;;;;;;;;5007118;28;20049;-69
2023/07/01 07:33:13;;;;;;;14.57;5.78;;;;;;;;;;5010921;28;20032;-68
2023/07/01 07:35:39;;;;;;;15.68;6.95;;;;;;;;;;5015368;28;20478;-68
2023/07/01 07:38:04;;;;;;;16.98;6.88;;;;;;;;;;5012955;28;20079;-68
2023/07/01 07:40:29;;;;;;;20.00;6.78;;;;;;;;;;5011015;28;20040;-68
2023/07/01 07:42:55;;;;;;;13.65;7.25;;;;;;;;;;5014296;28;20442;-68
2023/07/01 07:45:21;;;;;;;14.48;6.60;;;;;;;;;;5013990;28;20029;-69
2023/07/01 07:47:46;;;;;;;15.55;6.78;;;;;;;;;;5007090;28;20022;-69
2023/07/01 07:50:12;;;;;;;13.48;7.45;;;;;;;;;;5012014;28;20028;-69
2023/07/01 07:52:37;;;;;;;13.68;6.45;;;;;;;;;;5012183;28;20061;-69
2023/07/01 07:55:03;;;;;;;14.23;5.97;;;;;;;;;;5014388;28;20024;-69
2023/07/01 07:57:28;;;;;;;15.27;6.22;;;;;;;;;;5010316;28;20036;-69
2023/07/01 07:59:53;;;;;;;16.38;6.43;;;;;;;;;;5008414;28;20034;-71
2023/07/01 08:02:19;;;;;;;12.88;6.07;;;;;;;;;;5013260;28;20495;-69
2023/07/01 08:04:44;;;;;;;12.05;5.57;;;;;;;;;;5014357;28;20546;-69
2023/07/01 08:07:10;;;;;;;14.85;6.82;;;;;;;;;;5009497;28;20013;-69
2023/07/01 08:09:36;;;;;;;13.35;7.30;;;;;;;;;;5010274;28;20368;-69
2023/07/01 08:12:01;;;;;;;10.52;5.72;;;;;;;;;;5007333;28;20021;-69
2023/07/01 08:14:27;;;;;;;15.00;8.23;;;;;;;;;;5004939;28;20376;-69
2023/07/01 08:16:53;;;;;;;17.45;6.03;;;;;;;;;;5012043;28;20037;-69
2023/07/01 08:19:18;;;;;;;14.07;6.70;;;;;;;;;;5007046;28;20072;-69
2023/07/01 08:21:44;;;;;;;13.98;5.97;;;;;;;;;;5014123;28;20049;-71
2023/07/01 08:24:09;;;;;;;14.60;6.43;;;;;;;;;;5011477;28;20492;-70
2023/07/01 08:26:35;;;;;;;12.30;6.28;;;;;;;;;;5013324;28;20026;-70
2023/07/01 08:29:00;;;;;;;14.43;7.13;;;;;;;;;;5011541;28;20391;-70
2023/07/01 08:31:26;;;;;;;11.10;5.63;;;;;;;;;;5013033;28;20025;-70
2023/07/01 08:33:51;;;;;;;15.27;5.97;;;;;;;;;;5011906;28;20467;-70
2023/07/01 08:36:17;;;;;;;14.65;5.85;;;;;;;;;;5014236;28;20056;-70
2023/07/01 08:38:42;;;;;;;9.93;6.32;;;;;;;;;;5002284;28;20026;-70
2023/07/01 08:41:09;;;;;;;15.27;7.65;;;;;;;;;;5014308;28;20017;-70
2023/07/01 08:43:35;;;;;;;11.55;6.40;;;;;;;;;;5003638;28;20021;-68
2023/07/01 08:46:04;;;;;;;11.77;6.00;;;;;;;;;;5011671;28;20028;-68
2023/07/01 08:48:30;;;;;;;16.23;6.72;;;;;;;;;;5011654;28;20084;-68
2023/07/01 08:51:09;;;;;;;12.63;5.78;;;;;;;;;;5013290;28;20153;-68
2023/07/01 08:53:36;;;;;;;18.85;6.40;;;;;;;;;;5013030;28;20395;-69
2023/07/01 08:56:01;;;;;;;11.82;6.28;;;;;;;;;;5012103;28;20551;-68
2023/07/01 08:58:28;;;;;;;11.70;5.70;;;;;;;;;;5013914;28;20149;-69
2023/07/01 09:00:55;;;;;;;12.80;6.97;;;;;;;;;;5013001;28;20030;-68
2023/07/01 09:03:21;;;;;;;13.40;6.82;;;;;;;;;;5012978;28;20060;-69
2023/07/01 09:05:47;;;;;;;17.17;6.95;;;;;;;;;;5013240;28;20476;-68
2023/07/01 09:08:12;;;;;;;12.10;6.03;;;;;;;;;;4999039;28;20044;-68
2023/07/01 09:10:37;;;;;;;17.77;5.82;;;;;;;;;;5009608;28;20068;-68
2023/07/01 09:13:13;;;;;;;11.90;5.85;;;;;;;;;;5009513;28;20026;-68
2023/07/01 09:15:44;;;;;;;11.70;6.40;;;;;;;;;;5012238;28;20545;-68
2023/07/01 09:18:20;;;;;;;10.52;6.90;;;;;;;;;;5011247;28;20040;-69
2023/07/01 09:20:45;;;;;;;11.30;5.63;;;;;;;;;;5012303;28;20550;-68
2023/07/01 09:23:11;;;;;;;15.10;6.30;;;;;;;;;;5013601;28;20025;-68
2023/07/01 09:25:37;;;;;;;13.20;6.90;;;;;;;;;;5012597;28;20419;-68
2023/07/01 09:28:03;;;;;;;13.07;6.30;;;;;;;;;;5012627;28;20021;-69
2023/07/01 09:30:29;;;;;;;12.63;6.47;;;;;;;;;;5011769;28;20037;-70
2023/07/01 09:33:12;;;;;;;15.10;6.28;;;;;;;;;;5012167;28;20037;-69
2023/07/01 09:35:44;;;;;;;12.95;6.95;;;;;;;;;;5012640;28;20029;-68
2023/07/01 09:38:09;;;;;;;12.32;7.80;;;;;;;;;;5013027;28;20431;-68
2023/07/01 09:40:35;;;;;;;17.45;6.97;;;;;;;;;;5012990;28;20026;-68
2023/07/01 09:43:00;;;;;;;16.17;7.63;;;;;;;;;;5010570;28;20017;-69
2023/07/01 09:45:26;;;;;;;14.55;6.72;;;;;;;;;;5001709;28;20042;-68
2023/07/01 09:47:52;;;;;;;12.07;5.82;;;;;;;;;;4995733;28;20018;-68
2023/07/01 09:50:21;;;;;;;14.82;7.05;;;;;;;;;;5012844;28;20032;-68
2023/07/01 09:52:46;;;;;;;13.35;7.05;;;;;;;;;;5004486;28;20025;-69
2023/07/01 09:55:11;;;;;;;19.48;7.95;;;;;;;;;;5001054;28;20075;-68
2023/07/01 09:57:38;;;;;;;19.33;8.52;;;;;;;;;;5006627;28;20025;-68
2023/07/01 10:00:05;;;;;;;12.82;7.55;;;;;;;;;;5003938;28;20030;-68
2023/07/01 10:02:30;;;;;;;13.57;7.50;;;;;;;;;;5002672;28;20022;-69
2023/07/01 10:04:56;;;;;;;12.27;7.50;;;;;;;;;;5003837;28;20037;-69
2023/07/01 10:07:21;;;;;;;13.10;7.43;;;;;;;;;;5001705;28;20022;-69
2023/07/01 10:09:47;;;;;;;16.70;8.30;;;;;;;;;;4999385;28;20368;-68
2023/07/01 10:12:17;;;;;;;16.25;7.22;;;;;;;;;;5003109;28;20503;-69
2023/07/01 10:14:43;;;;;;;15.45;7.65;;;;;;;;;;5000699;28;20026;-69
2023/07/01 10:17:09;;;;;;;13.25;7.28;;;;;;;;;;5013243;28;20032;-71
2023/07/01 10:19:35;;;;;;;13.20;7.03;;;;;;;;;;5003018;28;20044;-70
2023/07/01 10:22:26;;;;;;;13.13;6.38;;;;;;;;;;5003029;28;20072;-70
2023/07/01 10:24:57;;;;;;;12.07;6.80;;;;;;;;;;5007867;28;20037;-70
2023/07/01 10:27:44;;;;;;;11.75;6.78;;;;;;;;;;5005938;28;20023;-70
2023/07/01 10:30:13;;;;;;;13.63;7.32;;;;;;;;;;5010474;28;20089;-69
2023/07/01 10:32:39;;;;;;;13.90;6.90;;;;;;;;;;5006731;28;20024;-69
2023/07/01 10:35:04;;;;;;;17.30;7.03;;;;;;;;;;5006794;28;20105;-69
2023/07/01 10:37:32;;;;;;;15.33;9.00;;;;;;;;;;5003756;28;20375;-70
2023/07/01 10:40:07;;;;;;;16.45;7.45;;;;;;;;;;4991985;28;20457;-70
2023/07/01 10:42:34;;;;;;;14.18;7.68;;;;;;;;;;5003697;28;20018;-69
2023/07/01 10:45:12;;;;;;;12.43;6.80;;;;;;;;;;5010701;28;20036;-69
2023/07/01 10:47:49;;;;;;;12.27;7.25;;;;;;;;;;5006165;28;20018;-69
2023/07/01 10:50:16;;;;;;;14.63;7.43;;;;;;;;;;5006007;28;20027;-70
2023/07/01 10:53:00;;;;;;;14.27;7.45;;;;;;;;;;5005947;28;20022;-69
2023/07/01 10:55:38;;;;;;;17.02;7.63;;;;;;;;;;4996777;28;20109;-69
2023/07/01 10:58:24;;;;;;;15.10;7.25;;;;;;;;;;5004901;28;20029;-69
2023/07/01 11:00:50;;;;;;;13.10;7.55;;;;;;;;;;5007000;28;20030;-70
2023/07/01 11:03:34;;;;;;;14.38;7.50;;;;;;;;;;5005057;28;20471;-69
2023/07/01 11:06:06;;;;;;;16.38;8.13;;;;;;;;;;5004135;28;20172;-69
2023/07/01 11:08:34;;;;;;;13.10;6.78;;;;;;;;;;5007256;28;20037;-69
2023/07/01 11:11:00;;;;;;;15.20;7.85;;;;;;;;;;5004692;28;20476;-69
2023/07/01 11:13:25;;;;;;;14.18;7.53;;;;;;;;;;5008940;28;20029;-69
2023/07/01 11:16:10;;;;;;;11.50;7.05;;;;;;;;;;5004381;28;20141;-69
2023/07/01 11:19:05;;;;;;;15.85;7.18;;;;;;;;;;5002805;28;20037;-69
2023/07/01 11:21:32;;;;;;;12.60;6.70;;;;;;;;;;5003858;28;20049;-69
2023/07/01 11:24:23;;;;;;;10.52;6.40;;;;;;;;;;5013779;28;20061;-69
2023/07/01 11:26:50;;;;;;;10.63;5.85;;;;;;;;;;5006950;28;20072;-69
2023/07/01 11:29:16;;;;;;;14.93;6.78;;;;;;;;;;5011786;28;20034;-70
2023/07/01 11:31:42;;;;;;;13.90;6.00;;;;;;;;;;5015280;28;20021;-69
2023/07/01 11:34:07;;;;;;;10.68;6.38;;;;;;;;;;5010229;28;20024;-70
2023/07/01 11:36:40;;;;;;;8.57;5.10;;;;;;;;;;5008114;28;20069;-70
2023/07/01 11:39:18;;;;;;;14.00;5.93;;;;;;;;;;5009775;28;20030;-70
2023/07/01 11:41:50;;;;;;;10.20;5.57;;;;;;;;;;5011105;28;20022;-70
2023/07/01 11:44:18;;;;;;;12.85;5.40;;;;;;;;;;5010832;28;20022;-70
2023/07/01 11:46:44;;;;;;;9.25;4.25;;;;;;;;;;5007253;28;20551;-70
2023/07/01 11:49:23;;;;;;;8.45;4.88;;;;;;;;;;5010225;28;20120;-70
2023/07/01 11:51:50;;;;;;;8.98;5.00;;;;;;;;;;5013142;28;20055;-70
2023/07/01 11:54:18;;;;;;;8.50;4.53;;;;;;;;;;5011907;28;20511;-70
2023/07/01 11:56:44;;;;;;;10.02;5.05;;;;;;;;;;5009758;28;20018;-70
2023/07/01 11:59:10;;;;;;;9.50;5.00;;;;;;;;;;5013280;28;20026;-70
2023/07/01 12:01:38;;;;;;;9.10;5.43;;;;;;;;;;5005360;28;20026;-70
2023/07/01 12:04:16;;;;;;;11.70;5.65;;;;;;;;;;5006694;28;20057;-70
2023/07/01 12:06:42;;;;;;;12.13;6.18;;;;;;;;;;5004816;28;20105;-70
2023/07/01 12:09:08;;;;;;;10.27;5.45;;;;;;;;;;5012756;28;20054;-70
2023/07/01 12:11:49;;;;;;;9.57;5.13;;;;;;;;;;5012995;28;20029;-70
2023/07/01 12:14:18;;;;;;;11.25;6.80;;;;;;;;;;5013353;28;20026;-70
2023/07/01 12:16:46;;;;;;;11.32;5.40;;;;;;;;;;5004726;28;20069;-70
2023/07/01 12:19:13;;;;;;;10.43;6.00;;;;;;;;;;5012864;28;20033;-70
2023/07/01 12:21:40;;;;;;;9.35;4.72;;;;;;;;;;5009627;28;20048;-70
2023/07/01 12:24:18;;;;;;;7.75;4.72;;;;;;;;;;5013061;28;20026;-70
2023/07/01 12:26:45;;;;;;;7.70;3.72;;;;;;;;;;5024054;28;20081;-70
2023/07/01 12:29:10;;;;;;;8.80;4.60;;;;;;;;;;5005273;28;20112;-70
2023/07/01 12:31:35;;;;;;;8.20;4.28;;;;;;;;;;5012154;28;20028;-70
2023/07/01 12:34:01;;;;;;;10.07;3.63;;;;;;;;;;5007686;28;20075;-70
2023/07/01 12:36:26;;;;;;;6.57;3.40;;;;;;;;;;5011912;28;20030;-70
2023/07/01 12:38:52;;;;;;;7.97;4.03;;;;;;;;;;5002823;28;20022;-70
2023/07/01 12:41:18;;;;;;;8.18;4.50;;;;;;;;;;5013469;28;20092;-70
2023/07/01 12:43:43;;;;;;;10.57;5.20;;;;;;;;;;5004839;28;20035;-70
2023/07/01 12:46:08;;;;;;;9.65;4.20;;;;;;;;;;5011475;28;20026;-70
2023/07/01 12:48:34;;;;;;;8.45;4.28;;;;;;;;;;5013113;28;20013;-70
2023/07/01 12:50:59;;;;;;;9.32;4.43;;;;;;;;;;5011213;28;20044;-70
2023/07/01 12:53:26;;;;;;;10.07;4.47;;;;;;;;;;5004996;28;20037;-70
2023/07/01 12:55:51;;;;;;;12.57;4.65;;;;;;;;;;5003673;28;20030;-70
2023/07/01 12:58:17;;;;;;;10.10;5.10;;;;;;;;;;5007232;28;20044;-70
2023/07/01 13:00:42;;;;;;;10.68;5.30;;;;;;;;;;5011558;28;20033;-70
2023/07/01 13:03:08;;;;;;;12.95;5.75;;;;;;;;;;5004854;28;20030;-70
2023/07/01 13:05:33;;;;;;;9.48;5.00;;;;;;;;;;5011877;28;20105;-70
2023/07/01 13:08:00;;;;;;;11.63;5.63;;;;;;;;;;5008100;28;20033;-70
2023/07/01 13:10:25;;;;;;;13.50;6.20;;;;;;;;;;5012075;28;20037;-70
2023/07/01 13:12:56;;;;;;;12.60;6.10;;;;;;;;;;5023445;28;20025;-70
2023/07/01 13:15:29;;;;;;;14.48;6.45;;;;;;;;;;5011991;28;20034;-70
2023/07/01 13:17:54;;;;;;;14.90;5.80;;;;;;;;;;5012121;28;20018;-70
2023/07/01 13:20:21;;;;;;;12.73;6.10;;;;;;;;;;5011470;28;20033;-70
2023/07/01 13:22:50;;;;;;;19.52;6.72;;;;;;;;;;5012424;28;20507;-70
2023/07/01 13:25:17;;;;;;;14.13;6.50;;;;;;;;;;5012585;28;20034;-70
2023/07/01 13:27:42;;;;;;;11.95;6.45;;;;;;;;;;5012542;28;20084;-71
2023/07/01 13:30:08;;;;;;;17.83;6.68;;;;;;;;;;5012987;28;20488;-70
2023/07/01 13:32:34;;;;;;;13.18;6.80;;;;;;;;;;5012841;28;20018;-70
2023/07/01 13:35:01;;;;;;;17.95;6.68;;;;;;;;;;5010035;28;20036;-70
2023/07/01 13:37:26;;;;;;;14.63;7.35;;;;;;;;;;5011116;28;20121;-70
2023/07/01 13:39:52;;;;;;;14.38;7.00;;;;;;;;;;5009939;28;20037;-70
2023/07/01 13:42:25;;;;;;;16.25;7.07;;;;;;;;;;5012330;28;20492;-70
2023/07/01 13:44:55;;;;;;;15.02;7.63;;;;;;;;;;5010087;28;20028;-70
2023/07/01 13:47:37;;;;;;;17.40;8.00;;;;;;;;;;5036180;23;20095;-74
2023/07/01 13:50:05;;;;;;;15.25;6.82;;;;;;;;;;5020439;28;20026;-72
2023/07/01 13:52:31;;;;;;;17.27;7.20;;;;;;;;;;5003928;28;20038;-72
2023/07/01 13:54:56;;;;;;;22.83;8.85;;;;;;;;;;5012999;28;20083;-70
2023/07/01 13:57:28;;;;;;;15.63;6.40;;;;;;;;;;5011910;28;20036;-72
2023/07/01 13:59:54;;;;;;;13.27;6.43;;;;;;;;;;5012026;28;20487;-71
2023/07/01 14:02:20;;;;;;;15.63;6.40;;;;;;;;;;5011498;28;20032;-72
2023/07/01 14:04:46;;;;;;;14.32;6.85;;;;;;;;;;5012524;28;20025;-72
2023/07/01 14:07:16;;;;;;;12.23;5.93;;;;;;;;;;5012564;28;20105;-72
2023/07/01 14:09:41;;;;;;;12.98;6.85;;;;;;;;;;5012658;28;20029;-72
2023/07/01 14:12:07;;;;;;;11.52;5.28;;;;;;;;;;5008156;28;20017;-72
2023/07/01 14:14:33;;;;;;;14.40;8.02;;;;;;;;;;5009060;28;20424;-72
2023/07/01 14:16:58;;;;;;;13.30;5.90;;;;;;;;;;5004401;28;20019;-72
2023/07/01 14:19:26;;;;;;;11.88;5.60;;;;;;;;;;5002108;28;20022;-72
2023/07/01 14:21:53;;;;;;;15.30;5.57;;;;;;;;;;5011539;28;20452;-72
2023/07/01 14:24:26;;;;;;;11.10;6.00;;;;;;;;;;5011567;28;20395;-72
2023/07/01 14:26:55;;;;;;;14.40;6.97;;;;;;;;;;5008166;28;20372;-72
2023/07/01 14:29:21;;;;;;;10.93;5.45;;;;;;;;;;5010622;28;20109;-72
2023/07/01 14:31:51;;;;;;;15.38;6.30;;;;;;;;;;5011183;28;20102;-72
2023/07/01 14:34:20;;;;;;;11.73;5.80;;;;;;;;;;5011486;28;20053;-71